sensor_id;sensor_type;location;lat;lon;timestamp;pressure;altitude;pressure_sealevel;temperature;humidity
6218;BME280;3142;48.206;11.550;2023-02-26T00:01:38;94907.28;;;2.14;74.41
6218;BME280;3142;48.206;11.550;2023-02-26T00:04:06;94912.81;;;2.02;75.12
6218;BME280;3142;48.206;11.550;2023-02-26T00:06:35;94907.31;;;2.05;75.92
6218;BME280;3142;48.206;11.550;2023-02-26T00:09:03;94913.44;;;2.04;75.13
6218;BME280;3142;48.206;11.550;2023-02-26T00:11:30;94915.81;;;2.14;74.96
6218;BME280;3142;48.206;11.550;2023-02-26T00:13:58;94913.13;;;2.07;75.12
6218;BME280;3142;48.206;11.550;2023-02-26T00:16:27;94922.19;;;1.95;75.40
6218;BME280;3142;48.206;11.550;2023-02-26T00:18:54;94924.47;;;1.82;75.84
6218;BME280;3142;48.206;11.550;2023-02-26T00:21:22;94923.84;;;1.72;76.29
6218;BME280;3142;48.206;11.550;2023-02-26T00:23:49;94930.31;;;1.68;76.48
6218;BME280;3142;48.206;11.550;2023-02-26T00:26:16;94926.59;;;1.78;76.66
6218;BME280;3142;48.206;11.550;2023-02-26T00:28:42;94933.34;;;1.80;76.44
6218;BME280;3142;48.206;11.550;2023-02-26T00:31:13;94931.41;;;1.73;76.26
6218;BME280;3142;48.206;11.550;2023-02-26T00:33:41;94939.19;;;1.57;76.84
6218;BME280;3142;48.206;11.550;2023-02-26T00:36:18;94935.81;;;1.48;77.02
6218;BME280;3142;48.206;11.550;2023-02-26T00:38:54;94935.34;;;1.53;77.05
6218;BME280;3142;48.206;11.550;2023-02-26T00:41:23;94930.19;;;1.45;76.99
6218;BME280;3142;48.206;11.550;2023-02-26T00:43:50;94933.72;;;1.52;77.00
6218;BME280;3142;48.206;11.550;2023-02-26T00:46:21;94942.75;;;1.40;76.61
6218;BME280;3142;48.206;11.550;2023-02-26T00:48:55;94945.00;;;1.35;76.43
6218;BME280;3142;48.206;11.550;2023-02-26T00:51:29;94936.47;;;1.42;76.32
6218;BME280;3142;48.206;11.550;2023-02-26T00:54:03;94944.19;;;1.42;76.16
6218;BME280;3142;48.206;11.550;2023-02-26T00:56:33;94943.06;;;1.37;76.29
6218;BME280;3142;48.206;11.550;2023-02-26T00:58:59;94940.78;;;1.50;75.84
6218;BME280;3142;48.206;11.550;2023-02-26T01:01:27;94950.81;;;1.53;76.04
6218;BME280;3142;48.206;11.550;2023-02-26T01:03:54;94948.53;;;1.50;76.11
6218;BME280;3142;48.206;11.550;2023-02-26T01:06:24;94944.84;;;1.44;75.86
6218;BME280;3142;48.206;11.550;2023-02-26T01:08:57;94945.16;;;1.41;75.87
6218;BME280;3142;48.206;11.550;2023-02-26T01:11:27;94942.91;;;1.38;75.82
6218;BME280;3142;48.206;11.550;2023-02-26T01:13:54;94953.69;;;1.34;76.14
6218;BME280;3142;48.206;11.550;2023-02-26T01:16:24;94951.31;;;1.24;76.52
6218;BME280;3142;48.206;11.550;2023-02-26T01:19:01;94950.16;;;1.18;76.69
6218;BME280;3142;48.206;11.550;2023-02-26T01:21:32;94948.84;;;1.23;76.47
6218;BME280;3142;48.206;11.550;2023-02-26T01:24:02;94945.50;;;1.30;75.86
6218;BME280;3142;48.206;11.550;2023-02-26T01:26:30;94950.97;;;1.19;76.51
6218;BME280;3142;48.206;11.550;2023-02-26T01:28:57;94946.59;;;1.36;76.17
6218;BME280;3142;48.206;11.550;2023-02-26T01:31:32;94951.94;;;1.26;76.33
6218;BME280;3142;48.206;11.550;2023-02-26T01:34:05;94950.63;;;1.22;75.36
6218;BME280;3142;48.206;11.550;2023-02-26T01:36:39;94950.00;;;1.20;75.80
6218;BME280;3142;48.206;11.550;2023-02-26T01:39:13;94954.03;;;1.14;75.90
6218;BME280;3142;48.206;11.550;2023-02-26T01:41:46;94954.19;;;1.21;75.97
6218;BME280;3142;48.206;11.550;2023-02-26T01:44:19;94959.34;;;1.29;75.25
6218;BME280;3142;48.206;11.550;2023-02-26T01:46:58;94960.31;;;1.28;75.87
6218;BME280;3142;48.206;11.550;2023-02-26T01:49:29;94965.78;;;1.33;75.33
6218;BME280;3142;48.206;11.550;2023-02-26T01:51:57;94961.59;;;1.57;74.92
6218;BME280;3142;48.206;11.550;2023-02-26T01:54:28;94963.66;;;1.69;74.11
6218;BME280;3142;48.206;11.550;2023-02-26T01:56:58;94968.84;;;1.45;73.40
6218;BME280;3142;48.206;11.550;2023-02-26T01:59:26;94969.78;;;1.36;73.61
6218;BME280;3142;48.206;11.550;2023-02-26T02:01:53;94971.25;;;1.30;73.14
6218;BME280;3142;48.206;11.550;2023-02-26T02:04:23;94967.53;;;1.49;73.15
6218;BME280;3142;48.206;11.550;2023-02-26T02:06:52;94975.44;;;1.39;72.51
6218;BME280;3142;48.206;11.550;2023-02-26T02:09:19;94973.66;;;1.56;71.58
6218;BME280;3142;48.206;11.550;2023-02-26T02:12:03;94980.13;;;1.52;71.84
6218;BME280;3142;48.206;11.550;2023-02-26T02:14:41;94979.28;;;1.60;71.74
6218;BME280;3142;48.206;11.550;2023-02-26T02:17:13;94976.56;;;1.53;71.54
6218;BME280;3142;48.206;11.550;2023-02-26T02:19:56;94980.91;;;1.61;70.79
6218;BME280;3142;48.206;11.550;2023-02-26T02:22:50;94981.38;;;1.48;71.66
6218;BME280;3142;48.206;11.550;2023-02-26T02:28:35;94989.75;;;1.50;71.77
6218;BME280;3142;48.206;11.550;2023-02-26T02:31:10;94986.38;;;1.58;71.61
6218;BME280;3142;48.206;11.550;2023-02-26T02:33:44;94991.22;;;1.61;71.56
6218;BME280;3142;48.206;11.550;2023-02-26T02:36:17;94990.41;;;1.60;71.35
6218;BME280;3142;48.206;11.550;2023-02-26T02:38:48;94992.50;;;1.57;72.49
6218;BME280;3142;48.206;11.550;2023-02-26T02:41:19;94987.84;;;1.52;72.62
6218;BME280;3142;48.206;11.550;2023-02-26T02:43:48;94998.00;;;1.37;72.84
6218;BME280;3142;48.206;11.550;2023-02-26T02:46:20;94998.81;;;1.38;73.58
6218;BME280;3142;48.206;11.550;2023-02-26T02:48:52;95000.72;;;1.44;72.71
6218;BME280;3142;48.206;11.550;2023-02-26T02:51:25;95000.56;;;1.29;73.04
6218;BME280;3142;48.206;11.550;2023-02-26T02:53:56;94999.41;;;1.15;72.90
6218;BME280;3142;48.206;11.550;2023-02-26T02:56:28;95003.91;;;1.05;72.83
6218;BME280;3142;48.206;11.550;2023-02-26T02:58:59;95005.34;;;1.00;72.64
6218;BME280;3142;48.206;11.550;2023-02-26T03:01:30;95005.97;;;0.94;73.04
6218;BME280;3142;48.206;11.550;2023-02-26T03:04:02;95005.19;;;1.01;72.99
6218;BME280;3142;48.206;11.550;2023-02-26T03:06:30;95007.59;;;0.86;72.82
6218;BME280;3142;48.206;11.550;2023-02-26T03:08:57;95014.00;;;0.91;73.22
6218;BME280;3142;48.206;11.550;2023-02-26T03:11:24;95020.81;;;1.08;72.17
6218;BME280;3142;48.206;11.550;2023-02-26T03:13:51;95026.75;;;1.00;71.54
6218;BME280;3142;48.206;11.550;2023-02-26T03:16:33;95024.47;;;0.89;70.81
6218;BME280;3142;48.206;11.550;2023-02-26T03:19:13;95026.25;;;0.88;70.90
6218;BME280;3142;48.206;11.550;2023-02-26T03:21:46;95035.91;;;0.86;71.05
6218;BME280;3142;48.206;11.550;2023-02-26T03:24:17;95033.69;;;1.00;70.56
6218;BME280;3142;48.206;11.550;2023-02-26T03:26:55;95029.78;;;0.87;70.27
6218;BME280;3142;48.206;11.550;2023-02-26T03:29:28;95043.94;;;0.92;70.50
6218;BME280;3142;48.206;11.550;2023-02-26T03:32:04;95038.22;;;1.14;70.32
6218;BME280;3142;48.206;11.550;2023-02-26T03:34:37;95044.78;;;1.00;69.45
6218;BME280;3142;48.206;11.550;2023-02-26T03:37:16;95050.38;;;0.87;70.32
6218;BME280;3142;48.206;11.550;2023-02-26T03:39:46;95045.22;;;0.87;70.38
6218;BME280;3142;48.206;11.550;2023-02-26T03:42:17;95044.09;;;0.90;70.52
6218;BME280;3142;48.206;11.550;2023-02-26T03:44:50;95052.94;;;0.87;70.75
6218;BME280;3142;48.206;11.550;2023-02-26T03:47:19;95058.53;;;0.75;71.34
6218;BME280;3142;48.206;11.550;2023-02-26T03:49:48;95060.00;;;0.77;71.28
6218;BME280;3142;48.206;11.550;2023-02-26T03:52:19;95064.22;;;0.86;71.26
6218;BME280;3142;48.206;11.550;2023-02-26T03:54:52;95060.00;;;0.77;71.07
6218;BME280;3142;48.206;11.550;2023-02-26T03:57:20;95069.47;;;0.69;71.36
6218;BME280;3142;48.206;11.550;2023-02-26T03:59:47;95073.59;;;0.62;71.56
6218;BME280;3142;48.206;11.550;2023-02-26T04:02:16;95075.47;;;0.51;71.57
6218;BME280;3142;48.206;11.550;2023-02-26T04:04:49;95079.97;;;0.49;71.67
6218;BME280;3142;48.206;11.550;2023-02-26T04:07:17;95082.75;;;0.56;71.76
6218;BME280;3142;48.206;11.550;2023-02-26T04:09:47;95083.91;;;0.62;71.51
6218;BME280;3142;48.206;11.550;2023-02-26T04:12:14;95082.88;;;0.54;71.64
6218;BME280;3142;48.206;11.550;2023-02-26T04:14:41;95088.88;;;0.63;71.81
6218;BME280;3142;48.206;11.550;2023-02-26T04:17:07;95085.41;;;0.72;71.27
6218;BME280;3142;48.206;11.550;2023-02-26T04:19:33;95081.47;;;0.60;71.29
6218;BME280;3142;48.206;11.550;2023-02-26T04:22:01;95084.28;;;0.75;71.72
6218;BME280;3142;48.206;11.550;2023-02-26T04:24:28;95082.47;;;0.67;70.92
6218;BME280;3142;48.206;11.550;2023-02-26T04:26:54;95083.19;;;0.51;71.06
6218;BME280;3142;48.206;11.550;2023-02-26T04:29:20;95090.75;;;0.53;71.80
6218;BME280;3142;48.206;11.550;2023-02-26T04:31:47;95089.91;;;0.70;70.86
6218;BME280;3142;48.206;11.550;2023-02-26T04:34:13;95087.91;;;0.56;71.00
6218;BME280;3142;48.206;11.550;2023-02-26T04:36:39;95095.75;;;0.54;71.73
6218;BME280;3142;48.206;11.550;2023-02-26T04:39:07;95096.69;;;0.45;71.36
6218;BME280;3142;48.206;11.550;2023-02-26T04:41:34;95103.38;;;0.38;71.52
6218;BME280;3142;48.206;11.550;2023-02-26T04:44:02;95093.75;;;0.40;71.12
6218;BME280;3142;48.206;11.550;2023-02-26T04:46:28;95101.59;;;0.31;71.32
6218;BME280;3142;48.206;11.550;2023-02-26T04:48:55;95102.03;;;0.26;71.81
6218;BME280;3142;48.206;11.550;2023-02-26T04:51:21;95110.19;;;0.21;71.27
6218;BME280;3142;48.206;11.550;2023-02-26T04:53:48;95118.31;;;0.09;71.44
6218;BME280;3142;48.206;11.550;2023-02-26T04:56:15;95120.66;;;0.20;71.89
6218;BME280;3142;48.206;11.550;2023-02-26T04:58:42;95112.69;;;0.31;71.48
6218;BME280;3142;48.206;11.550;2023-02-26T05:01:08;95115.69;;;0.52;71.09
6218;BME280;3142;48.206;11.550;2023-02-26T05:03:35;95113.94;;;0.27;70.11
6218;BME280;3142;48.206;11.550;2023-02-26T05:06:01;95113.22;;;0.17;71.28
6218;BME280;3142;48.206;11.550;2023-02-26T05:08:27;95116.25;;;0.12;70.53
6218;BME280;3142;48.206;11.550;2023-02-26T05:10:54;95115.69;;;0.01;70.85
6218;BME280;3142;48.206;11.550;2023-02-26T05:13:22;95120.09;;;-0.10;70.71
6218;BME280;3142;48.206;11.550;2023-02-26T05:15:48;95127.31;;;-0.13;71.01
6218;BME280;3142;48.206;11.550;2023-02-26T05:18:14;95121.34;;;-0.14;71.16
6218;BME280;3142;48.206;11.550;2023-02-26T05:20:41;95127.09;;;-0.20;71.14
6218;BME280;3142;48.206;11.550;2023-02-26T05:23:07;95128.13;;;-0.31;70.78
6218;BME280;3142;48.206;11.550;2023-02-26T05:25:33;95124.09;;;-0.33;71.62
6218;BME280;3142;48.206;11.550;2023-02-26T05:28:00;95129.38;;;-0.35;70.70
6218;BME280;3142;48.206;11.550;2023-02-26T05:30:28;95131.03;;;-0.43;71.03
6218;BME280;3142;48.206;11.550;2023-02-26T05:32:54;95135.72;;;-0.56;71.10
6218;BME280;3142;48.206;11.550;2023-02-26T05:35:20;95135.28;;;-0.70;71.35
6218;BME280;3142;48.206;11.550;2023-02-26T05:37:47;95134.78;;;-0.73;72.00
6218;BME280;3142;48.206;11.550;2023-02-26T05:40:13;95134.56;;;-0.62;71.10
6218;BME280;3142;48.206;11.550;2023-02-26T05:42:40;95141.56;;;-0.54;71.47
6218;BME280;3142;48.206;11.550;2023-02-26T05:45:07;95144.13;;;-0.37;70.89
6218;BME280;3142;48.206;11.550;2023-02-26T05:47:35;95147.00;;;-0.40;71.45
6218;BME280;3142;48.206;11.550;2023-02-26T05:50:02;95147.34;;;-0.17;70.45
6218;BME280;3142;48.206;11.550;2023-02-26T05:52:28;95150.72;;;-0.16;70.43
6218;BME280;3142;48.206;11.550;2023-02-26T05:54:55;95156.09;;;-0.27;70.77
6218;BME280;3142;48.206;11.550;2023-02-26T05:57:21;95157.34;;;-0.32;70.72
6218;BME280;3142;48.206;11.550;2023-02-26T05:59:48;95160.88;;;-0.33;70.50
6218;BME280;3142;48.206;11.550;2023-02-26T06:02:15;95154.47;;;-0.11;69.95
6218;BME280;3142;48.206;11.550;2023-02-26T06:04:43;95162.97;;;-0.28;70.32
6218;BME280;3142;48.206;11.550;2023-02-26T06:07:09;95161.75;;;-0.24;69.77
6218;BME280;3142;48.206;11.550;2023-02-26T06:09:36;95161.53;;;-0.31;68.68
6218;BME280;3142;48.206;11.550;2023-02-26T06:12:02;95165.44;;;-0.26;68.66
6218;BME280;3142;48.206;11.550;2023-02-26T06:14:29;95162.47;;;-0.32;68.66
6218;BME280;3142;48.206;11.550;2023-02-26T06:16:55;95168.56;;;-0.50;69.10
6218;BME280;3142;48.206;11.550;2023-02-26T06:19:21;95176.16;;;-0.58;69.91
6218;BME280;3142;48.206;11.550;2023-02-26T06:21:49;95175.22;;;-0.57;69.61
6218;BME280;3142;48.206;11.550;2023-02-26T06:24:16;95192.50;;;-0.77;69.71
6218;BME280;3142;48.206;11.550;2023-02-26T06:26:42;95195.22;;;-0.79;70.60
6218;BME280;3142;48.206;11.550;2023-02-26T06:29:09;95201.53;;;-0.73;69.97
6218;BME280;3142;48.206;11.550;2023-02-26T06:31:35;95212.59;;;-0.73;70.02
6218;BME280;3142;48.206;11.550;2023-02-26T06:34:01;95213.81;;;-0.67;70.19
6218;BME280;3142;48.206;11.550;2023-02-26T06:36:28;95223.97;;;-0.48;69.88
6218;BME280;3142;48.206;11.550;2023-02-26T06:38:55;95220.63;;;-0.31;69.76
6218;BME280;3142;48.206;11.550;2023-02-26T06:41:22;95229.53;;;-0.07;69.04
6218;BME280;3142;48.206;11.550;2023-02-26T06:43:48;95232.84;;;0.03;68.70
6218;BME280;3142;48.206;11.550;2023-02-26T06:46:15;95242.03;;;0.23;67.73
6218;BME280;3142;48.206;11.550;2023-02-26T06:48:41;95235.03;;;0.34;67.32
6218;BME280;3142;48.206;11.550;2023-02-26T06:51:07;95232.78;;;0.31;67.23
6218;BME280;3142;48.206;11.550;2023-02-26T06:53:34;95235.84;;;0.34;66.82
6218;BME280;3142;48.206;11.550;2023-02-26T06:56:02;95236.59;;;0.70;66.09
6218;BME280;3142;48.206;11.550;2023-02-26T06:58:29;95231.16;;;0.99;65.51
6218;BME280;3142;48.206;11.550;2023-02-26T07:00:55;95239.94;;;1.23;64.58
6218;BME280;3142;48.206;11.550;2023-02-26T07:03:22;95240.66;;;1.33;63.85
6218;BME280;3142;48.206;11.550;2023-02-26T07:05:48;95266.28;;;1.08;63.99
6218;BME280;3142;48.206;11.550;2023-02-26T07:08:15;95267.59;;;0.86;65.09
6218;BME280;3142;48.206;11.550;2023-02-26T07:10:41;95280.00;;;0.91;64.58
6218;BME280;3142;48.206;11.550;2023-02-26T07:13:11;95280.31;;;0.88;64.36
6218;BME280;3142;48.206;11.550;2023-02-26T07:15:38;95284.75;;;0.78;64.73
6218;BME280;3142;48.206;11.550;2023-02-26T07:18:04;95277.69;;;0.80;64.81
6218;BME280;3142;48.206;11.550;2023-02-26T07:20:31;95287.44;;;0.94;64.36
6218;BME280;3142;48.206;11.550;2023-02-26T07:22:58;95283.50;;;1.08;63.77
6218;BME280;3142;48.206;11.550;2023-02-26T07:25:24;95286.59;;;1.37;63.09
6218;BME280;3142;48.206;11.550;2023-02-26T07:27:51;95292.19;;;1.33;62.03
6218;BME280;3142;48.206;11.550;2023-02-26T07:30:20;95296.28;;;1.17;62.33
6218;BME280;3142;48.206;11.550;2023-02-26T07:32:46;95302.06;;;0.94;63.53
6218;BME280;3142;48.206;11.550;2023-02-26T07:35:12;95308.75;;;1.04;63.82
6218;BME280;3142;48.206;11.550;2023-02-26T07:37:39;95307.75;;;0.97;64.02
6218;BME280;3142;48.206;11.550;2023-02-26T07:40:06;95310.81;;;1.01;63.74
6218;BME280;3142;48.206;11.550;2023-02-26T07:42:33;95314.72;;;1.05;63.98
6218;BME280;3142;48.206;11.550;2023-02-26T07:45:00;95311.66;;;1.27;63.38
6218;BME280;3142;48.206;11.550;2023-02-26T07:47:27;95302.88;;;1.46;63.34
6218;BME280;3142;48.206;11.550;2023-02-26T07:49:54;95306.06;;;1.40;63.02
6218;BME280;3142;48.206;11.550;2023-02-26T07:52:21;95317.09;;;1.24;63.61
6218;BME280;3142;48.206;11.550;2023-02-26T07:54:47;95320.94;;;1.20;63.35
6218;BME280;3142;48.206;11.550;2023-02-26T07:57:14;95315.38;;;1.33;63.26
6218;BME280;3142;48.206;11.550;2023-02-26T07:59:40;95315.59;;;1.39;62.93
6218;BME280;3142;48.206;11.550;2023-02-26T08:02:07;95306.97;;;1.99;62.21
6218;BME280;3142;48.206;11.550;2023-02-26T08:04:34;95307.84;;;2.24;61.62
6218;BME280;3142;48.206;11.550;2023-02-26T08:07:01;95303.53;;;1.90;61.81
6218;BME280;3142;48.206;11.550;2023-02-26T08:09:28;95308.75;;;1.64;62.46
6218;BME280;3142;48.206;11.550;2023-02-26T08:11:54;95310.44;;;1.39;63.28
6218;BME280;3142;48.206;11.550;2023-02-26T08:14:21;95318.88;;;1.24;63.37
6218;BME280;3142;48.206;11.550;2023-02-26T08:16:47;95321.16;;;1.35;64.20
6218;BME280;3142;48.206;11.550;2023-02-26T08:19:14;95328.75;;;1.36;63.69
6218;BME280;3142;48.206;11.550;2023-02-26T08:21:42;95321.72;;;1.46;64.25
6218;BME280;3142;48.206;11.550;2023-02-26T08:24:09;95319.78;;;1.48;63.27
6218;BME280;3142;48.206;11.550;2023-02-26T08:26:36;95327.75;;;1.29;64.57
6218;BME280;3142;48.206;11.550;2023-02-26T08:29:03;95340.38;;;1.14;64.90
6218;BME280;3142;48.206;11.550;2023-02-26T08:31:30;95351.84;;;1.20;64.83
6218;BME280;3142;48.206;11.550;2023-02-26T08:33:58;95355.41;;;1.01;65.85
6218;BME280;3142;48.206;11.550;2023-02-26T08:36:25;95362.28;;;1.18;65.42
6218;BME280;3142;48.206;11.550;2023-02-26T08:38:52;95357.13;;;1.18;65.28
6218;BME280;3142;48.206;11.550;2023-02-26T08:41:19;95356.13;;;1.11;65.67
6218;BME280;3142;48.206;11.550;2023-02-26T08:43:46;95347.91;;;1.34;65.53
6218;BME280;3142;48.206;11.550;2023-02-26T08:46:12;95351.66;;;1.39;65.26
6218;BME280;3142;48.206;11.550;2023-02-26T08:48:39;95355.31;;;1.37;65.46
6218;BME280;3142;48.206;11.550;2023-02-26T08:51:05;95364.38;;;1.15;65.48
6218;BME280;3142;48.206;11.550;2023-02-26T08:53:31;95372.69;;;1.09;65.94
6218;BME280;3142;48.206;11.550;2023-02-26T08:55:59;95376.81;;;1.02;66.64
6218;BME280;3142;48.206;11.550;2023-02-26T08:58:25;95391.78;;;0.98;66.76
6218;BME280;3142;48.206;11.550;2023-02-26T09:00:52;95380.34;;;1.01;67.00
6218;BME280;3142;48.206;11.550;2023-02-26T09:03:18;95381.75;;;1.13;67.16
6218;BME280;3142;48.206;11.550;2023-02-26T09:05:45;95384.59;;;1.28;66.68
6218;BME280;3142;48.206;11.550;2023-02-26T09:08:11;95380.16;;;1.38;66.77
6218;BME280;3142;48.206;11.550;2023-02-26T09:10:40;95382.97;;;1.53;66.63
6218;BME280;3142;48.206;11.550;2023-02-26T09:13:08;95394.44;;;1.58;66.30
6218;BME280;3142;48.206;11.550;2023-02-26T09:15:34;95399.03;;;1.46;66.59
6218;BME280;3142;48.206;11.550;2023-02-26T09:18:01;95399.75;;;1.57;66.70
6218;BME280;3142;48.206;11.550;2023-02-26T09:20:27;95405.72;;;1.57;66.55
6218;BME280;3142;48.206;11.550;2023-02-26T09:22:54;95406.69;;;1.56;66.08
6218;BME280;3142;48.206;11.550;2023-02-26T09:25:20;95415.47;;;1.45;66.84
6218;BME280;3142;48.206;11.550;2023-02-26T09:27:48;95412.72;;;1.47;66.60
6218;BME280;3142;48.206;11.550;2023-02-26T09:30:16;95415.88;;;1.59;66.13
6218;BME280;3142;48.206;11.550;2023-02-26T09:32:42;95413.13;;;1.60;66.18
6218;BME280;3142;48.206;11.550;2023-02-26T09:35:09;95426.59;;;1.72;66.01
6218;BME280;3142;48.206;11.550;2023-02-26T09:37:35;95425.22;;;1.60;66.29
6218;BME280;3142;48.206;11.550;2023-02-26T09:40:02;95434.72;;;1.59;66.62
6218;BME280;3142;48.206;11.550;2023-02-26T09:42:43;95434.31;;;1.46;65.98
6218;BME280;3142;48.206;11.550;2023-02-26T09:45:21;95438.66;;;1.45;66.30
6218;BME280;3142;48.206;11.550;2023-02-26T09:47:52;95441.88;;;1.47;66.36
6218;BME280;3142;48.206;11.550;2023-02-26T09:50:22;95448.97;;;1.45;67.23
6218;BME280;3142;48.206;11.550;2023-02-26T09:52:53;95447.69;;;1.49;67.18
6218;BME280;3142;48.206;11.550;2023-02-26T09:55:27;95447.84;;;1.66;67.37
6218;BME280;3142;48.206;11.550;2023-02-26T09:57:57;95443.22;;;1.77;67.27
6218;BME280;3142;48.206;11.550;2023-02-26T10:00:33;95443.75;;;1.81;67.00
6218;BME280;3142;48.206;11.550;2023-02-26T10:03:13;95441.75;;;2.01;66.84
6218;BME280;3142;48.206;11.550;2023-02-26T10:05:48;95446.16;;;2.08;65.84
6218;BME280;3142;48.206;11.550;2023-02-26T10:08:20;95447.41;;;2.04;66.29
6218;BME280;3142;48.206;11.550;2023-02-26T10:10:57;95451.50;;;1.89;66.23
6218;BME280;3142;48.206;11.550;2023-02-26T10:13:33;95447.38;;;1.96;66.63
6218;BME280;3142;48.206;11.550;2023-02-26T10:16:08;95436.06;;;2.31;66.04
6218;BME280;3142;48.206;11.550;2023-02-26T10:18:40;95440.13;;;2.34;65.56
6218;BME280;3142;48.206;11.550;2023-02-26T10:21:13;95458.47;;;2.23;66.01
6218;BME280;3142;48.206;11.550;2023-02-26T10:23:43;95444.19;;;2.45;65.26
6218;BME280;3142;48.206;11.550;2023-02-26T10:26:17;95445.78;;;2.88;64.59
6218;BME280;3142;48.206;11.550;2023-02-26T10:28:53;95439.94;;;2.86;63.80
6218;BME280;3142;48.206;11.550;2023-02-26T10:31:31;95441.88;;;2.76;64.33
6218;BME280;3142;48.206;11.550;2023-02-26T10:34:09;95434.94;;;2.76;64.17
6218;BME280;3142;48.206;11.550;2023-02-26T10:36:45;95439.31;;;2.84;64.05
6218;BME280;3142;48.206;11.550;2023-02-26T10:39:21;95433.69;;;2.96;63.83
6218;BME280;3142;48.206;11.550;2023-02-26T10:41:49;95438.84;;;2.88;63.91
6218;BME280;3142;48.206;11.550;2023-02-26T10:44:20;95440.44;;;2.81;63.96
6218;BME280;3142;48.206;11.550;2023-02-26T10:46:51;95440.03;;;2.60;64.95
6218;BME280;3142;48.206;11.550;2023-02-26T10:49:34;95438.81;;;2.30;66.04
6218;BME280;3142;48.206;11.550;2023-02-26T10:52:12;95441.22;;;2.31;66.67
6218;BME280;3142;48.206;11.550;2023-02-26T10:54:45;95435.16;;;2.41;66.63
6218;BME280;3142;48.206;11.550;2023-02-26T10:57:18;95426.28;;;2.43;66.65
6218;BME280;3142;48.206;11.550;2023-02-26T10:59:46;95425.50;;;2.51;67.46
6218;BME280;3142;48.206;11.550;2023-02-26T11:02:31;95419.75;;;2.73;66.93
6218;BME280;3142;48.206;11.550;2023-02-26T11:04:58;95422.50;;;2.80;65.51
6218;BME280;3142;48.206;11.550;2023-02-26T11:07:28;95417.63;;;2.68;65.30
6218;BME280;3142;48.206;11.550;2023-02-26T11:09:56;95414.44;;;2.83;65.37
6218;BME280;3142;48.206;11.550;2023-02-26T11:12:24;95409.91;;;2.77;64.96
6218;BME280;3142;48.206;11.550;2023-02-26T11:14:52;95409.94;;;3.01;65.04
6218;BME280;3142;48.206;11.550;2023-02-26T11:17:21;95405.75;;;2.92;64.47
6218;BME280;3142;48.206;11.550;2023-02-26T11:19:55;95413.97;;;2.95;64.69
6218;BME280;3142;48.206;11.550;2023-02-26T11:22:24;95406.41;;;3.02;65.25
6218;BME280;3142;48.206;11.550;2023-02-26T11:24:52;95410.91;;;2.92;64.56
6218;BME280;3142;48.206;11.550;2023-02-26T11:27:20;95412.22;;;3.04;64.44
6218;BME280;3142;48.206;11.550;2023-02-26T11:29:48;95420.44;;;3.08;64.16
6218;BME280;3142;48.206;11.550;2023-02-26T11:32:21;95431.59;;;3.08;65.04
6218;BME280;3142;48.206;11.550;2023-02-26T11:34:49;95434.00;;;3.10;65.24
6218;BME280;3142;48.206;11.550;2023-02-26T11:37:19;95436.94;;;3.07;64.94
6218;BME280;3142;48.206;11.550;2023-02-26T11:39:46;95442.91;;;3.07;65.76
6218;BME280;3142;48.206;11.550;2023-02-26T11:42:16;95452.94;;;3.18;65.30
6218;BME280;3142;48.206;11.550;2023-02-26T11:44:44;95452.56;;;2.97;64.00
6218;BME280;3142;48.206;11.550;2023-02-26T11:47:16;95448.91;;;3.32;64.25
6218;BME280;3142;48.206;11.550;2023-02-26T11:49:49;95443.03;;;3.79;63.71
6218;BME280;3142;48.206;11.550;2023-02-26T11:52:20;95449.69;;;3.73;63.74
6218;BME280;3142;48.206;11.550;2023-02-26T11:54:59;95457.31;;;3.59;63.22
6218;BME280;3142;48.206;11.550;2023-02-26T11:57:28;95449.22;;;3.21;62.90
6218;BME280;3142;48.206;11.550;2023-02-26T11:59:57;95457.94;;;3.20;63.34
6218;BME280;3142;48.206;11.550;2023-02-26T12:02:26;95447.28;;;3.23;63.41
6218;BME280;3142;48.206;11.550;2023-02-26T12:04:58;95457.44;;;3.41;62.66
6218;BME280;3142;48.206;11.550;2023-02-26T12:07:27;95465.53;;;3.54;61.73
6218;BME280;3142;48.206;11.550;2023-02-26T12:09:55;95458.41;;;3.80;60.90
6218;BME280;3142;48.206;11.550;2023-02-26T12:12:29;95452.72;;;4.49;57.32
6218;BME280;3142;48.206;11.550;2023-02-26T12:15:20;95452.78;;;5.02;57.55
6218;BME280;3142;48.206;11.550;2023-02-26T12:18:21;95443.38;;;5.47;55.83
6218;BME280;3142;48.206;11.550;2023-02-26T12:21:00;95441.00;;;5.98;54.34
6218;BME280;3142;48.206;11.550;2023-02-26T12:23:43;95436.44;;;6.15;54.32
6218;BME280;3142;48.206;11.550;2023-02-26T12:26:24;95448.91;;;5.67;54.31
6218;BME280;3142;48.206;11.550;2023-02-26T12:29:20;95456.16;;;5.03;54.68
6218;BME280;3142;48.206;11.550;2023-02-26T12:32:10;95458.16;;;4.62;54.21
6218;BME280;3142;48.206;11.550;2023-02-26T12:35:00;95448.28;;;4.26;54.94
6218;BME280;3142;48.206;11.550;2023-02-26T12:37:47;95456.88;;;4.19;54.61
6218;BME280;3142;48.206;11.550;2023-02-26T12:40:41;95453.56;;;3.85;54.22
6218;BME280;3142;48.206;11.550;2023-02-26T12:43:10;95453.38;;;3.79;55.40
6218;BME280;3142;48.206;11.550;2023-02-26T12:45:47;95447.59;;;3.61;55.63
6218;BME280;3142;48.206;11.550;2023-02-26T12:48:46;95442.03;;;4.04;55.71
6218;BME280;3142;48.206;11.550;2023-02-26T12:51:25;95440.56;;;4.57;55.55
6218;BME280;3142;48.206;11.550;2023-02-26T12:54:19;95426.28;;;5.15;54.50
6218;BME280;3142;48.206;11.550;2023-02-26T12:57:08;95424.94;;;5.42;53.84
6218;BME280;3142;48.206;11.550;2023-02-26T12:59:53;95417.16;;;5.19;54.22
6218;BME280;3142;48.206;11.550;2023-02-26T13:02:39;95423.91;;;5.05;54.13
6218;BME280;3142;48.206;11.550;2023-02-26T13:05:18;95423.41;;;4.79;54.53
6218;BME280;3142;48.206;11.550;2023-02-26T13:08:00;95426.78;;;4.57;55.03
6218;BME280;3142;48.206;11.550;2023-02-26T13:10:40;95432.91;;;4.25;56.85
6218;BME280;3142;48.206;11.550;2023-02-26T13:13:32;95440.72;;;4.08;58.21
6218;BME280;3142;48.206;11.550;2023-02-26T13:16:10;95437.22;;;3.85;58.66
6218;BME280;3142;48.206;11.550;2023-02-26T13:18:46;95443.69;;;3.81;58.66
6218;BME280;3142;48.206;11.550;2023-02-26T13:21:18;95445.28;;;3.82;58.38
6218;BME280;3142;48.206;11.550;2023-02-26T13:23:49;95443.50;;;3.91;56.74
6218;BME280;3142;48.206;11.550;2023-02-26T13:26:18;95445.59;;;4.03;56.90
6218;BME280;3142;48.206;11.550;2023-02-26T13:28:49;95452.38;;;4.04;57.19
6218;BME280;3142;48.206;11.550;2023-02-26T13:31:21;95449.78;;;4.04;57.39
6218;BME280;3142;48.206;11.550;2023-02-26T13:33:49;95443.81;;;4.04;57.04
6218;BME280;3142;48.206;11.550;2023-02-26T13:36:19;95456.13;;;4.02;56.86
6218;BME280;3142;48.206;11.550;2023-02-26T13:38:55;95456.16;;;3.77;57.42
6218;BME280;3142;48.206;11.550;2023-02-26T13:41:34;95457.13;;;3.68;58.19